Time;durP1;ratioP1;P1;durP2;ratioP2;P2;SDS_P1;SDS_P2;PMS_P1;PMS_P2;Temp;Humidity;BMP_temperature;BMP_pressure;BME280_temperature;BME280_humidity;BME280_pressure;Samples;Min_cycle;Max_cycle;Signal;HPM_P1;HPM_P2
2022/08/09 00:00:34;;;;;;;2.58;0.90;;;18.30;64.10;;;;;;6323075;28;20407;-75
2022/08/09 00:03:37;;;;;;;1.90;0.88;;;18.30;64.40;;;;;;6323096;28;20047;-76
2022/08/09 00:06:39;;;;;;;1.92;0.77;;;18.20;64.50;;;;;;6323311;28;20054;-76
2022/08/09 00:09:40;;;;;;;3.17;0.88;;;18.20;64.80;;;;;;6323223;28;20052;-76
2022/08/09 00:12:42;;;;;;;1.83;0.57;;;18.10;65.20;;;;;;6322969;28;20683;-76
2022/08/09 00:15:45;;;;;;;3.08;0.80;;;18.10;65.30;;;;;;6322814;28;20048;-76
2022/08/09 00:19:00;;;;;;;2.55;0.70;;;18.10;65.50;;;;;;6322996;28;20063;-77
2022/08/09 00:22:02;;;;;;;0.95;0.63;;;18.00;65.60;;;;;;6323015;28;20423;-76
2022/08/09 00:25:05;;;;;;;2.45;0.80;;;18.00;65.90;;;;;;6324060;28;20397;-76
2022/08/09 00:28:06;;;;;;;3.10;0.82;;;18.00;66.70;;;;;;6323160;28;20048;-77
2022/08/09 00:31:08;;;;;;;1.38;0.85;;;17.90;66.10;;;;;;6323474;28;20538;-77
2022/08/09 00:34:11;;;;;;;1.25;0.70;;;17.90;66.20;;;;;;6323242;28;20044;-77
2022/08/09 00:37:13;;;;;;;1.92;1.10;;;17.90;66.20;;;;;;6323964;28;20052;-76
2022/08/09 00:40:15;;;;;;;3.92;0.80;;;17.90;66.10;;;;;;6323090;28;20036;-77
2022/08/09 00:43:17;;;;;;;1.60;0.77;;;17.90;66.10;;;;;;6323102;28;20529;-77
2022/08/09 00:46:19;;;;;;;2.45;1.05;;;17.90;66.30;;;;;;6322531;28;20044;-76
2022/08/09 00:49:22;;;;;;;1.65;0.73;;;18.10;66.30;;;;;;6323109;28;20048;-77
2022/08/09 00:52:25;;;;;;;2.15;0.90;;;18.30;66.00;;;;;;6322916;28;20044;-77
2022/08/09 00:55:27;;;;;;;3.55;0.90;;;18.50;65.70;;;;;;6323182;28;20052;-78
2022/08/09 00:58:30;;;;;;;2.28;0.90;;;18.70;64.90;;;;;;6317655;28;20419;-77
2022/08/09 01:01:37;;;;;;;4.63;0.80;;;18.80;64.10;;;;;;6306696;28;20055;-76
2022/08/09 01:04:46;;;;;;;1.63;0.93;;;18.80;63.70;;;;;;6312939;28;20040;-77
2022/08/09 01:07:54;;;;;;;1.05;0.75;;;18.70;63.80;;;;;;6314904;28;20044;-78
2022/08/09 01:11:10;;;;;;;1.83;0.82;;;18.70;64.10;;;;;;6298952;28;20036;-78
2022/08/09 01:14:18;;;;;;;0.93;0.65;;;18.60;64.30;;;;;;6300538;28;20102;-78
2022/08/09 01:17:25;;;;;;;3.38;0.80;;;18.50;64.40;;;;;;6303211;28;20060;-78
2022/08/09 01:20:39;;;;;;;1.95;0.77;;;18.60;65.00;;;;;;6298795;28;20128;-78
2022/08/09 01:23:55;;;;;;;2.20;0.70;;;18.60;64.60;;;;;;6297939;28;20056;-78
2022/08/09 01:27:05;;;;;;;1.67;0.70;;;18.70;64.40;;;;;;6298135;28;20049;-76
2022/08/09 01:30:08;;;;;;;2.97;0.88;;;18.60;64.50;;;;;;6307298;28;20048;-76
2022/08/09 01:33:12;;;;;;;2.97;0.85;;;18.50;64.90;;;;;;6324021;28;20055;-77
2022/08/09 01:36:16;;;;;;;1.58;0.80;;;18.40;65.20;;;;;;6323589;28;20040;-78
2022/08/09 01:39:21;;;;;;;1.10;0.73;;;18.30;65.50;;;;;;6323503;28;20044;-78
2022/08/09 01:42:26;;;;;;;1.10;0.70;;;18.30;65.80;;;;;;6323930;28;20047;-77
2022/08/09 01:45:29;;;;;;;1.58;0.90;;;18.20;66.10;;;;;;6324541;28;20086;-77
2022/08/09 01:48:33;;;;;;;18.08;1.00;;;18.20;66.60;;;;;;6322961;28;20055;-78
2022/08/09 01:51:36;;;;;;;2.25;1.00;;;18.10;66.70;;;;;;6323616;28;20044;-78
2022/08/09 01:54:41;;;;;;;7.28;2.30;;;18.10;66.70;;;;;;6323071;28;20054;-78
2022/08/09 01:57:46;;;;;;;5.57;0.82;;;18.10;66.70;;;;;;6323213;28;20052;-78
2022/08/09 02:00:49;;;;;;;1.30;0.60;;;18.10;67.10;;;;;;6323586;28;20055;-78
2022/08/09 02:03:52;;;;;;;1.15;0.68;;;18.10;67.40;;;;;;6323138;28;20052;-78
2022/08/09 02:07:13;;;;;;;5.07;1.23;;;18.20;67.40;;;;;;6322902;28;20051;-78
2022/08/09 02:10:19;;;;;;;8.13;2.13;;;18.20;67.10;;;;;;6323178;28;20130;-78
2022/08/09 02:13:24;;;;;;;1.55;0.82;;;18.10;67.10;;;;;;6323471;28;20055;-77
2022/08/09 02:16:29;;;;;;;2.42;0.73;;;18.00;67.10;;;;;;6323195;28;20048;-77
2022/08/09 02:19:31;;;;;;;2.42;0.65;;;18.00;67.40;;;;;;6323025;28;20502;-77
2022/08/09 02:22:38;;;;;;;1.30;0.75;;;17.90;67.50;;;;;;6322506;28;20063;-76
2022/08/09 02:25:42;;;;;;;4.97;0.80;;;17.80;67.70;;;;;;6323729;28;20044;-78
2022/08/09 02:28:47;;;;;;;5.40;1.00;;;17.80;68.00;;;;;;6322920;28;20055;-78
2022/08/09 02:31:50;;;;;;;2.85;1.10;;;17.70;68.10;;;;;;6322708;28;20052;-78
2022/08/09 02:34:57;;;;;;;2.22;1.15;;;17.60;68.20;;;;;;6323770;28;20048;-78
2022/08/09 02:38:02;;;;;;;2.75;0.82;;;17.50;68.60;;;;;;6323030;28;20048;-78
2022/08/09 02:41:08;;;;;;;2.45;0.90;;;17.40;69.00;;;;;;6322929;28;20059;-78
2022/08/09 02:44:16;;;;;;;3.78;0.85;;;17.30;69.20;;;;;;6322950;28;20054;-77
2022/08/09 02:47:21;;;;;;;5.97;1.00;;;17.30;69.70;;;;;;6322802;28;20059;-76
2022/08/09 02:50:26;;;;;;;2.58;1.38;;;17.30;69.80;;;;;;6322464;28;20044;-77
2022/08/09 02:53:31;;;;;;;1.55;0.77;;;17.20;70.10;;;;;;6323054;28;20052;-78
2022/08/09 02:56:34;;;;;;;1.20;0.82;;;17.10;70.30;;;;;;6323082;28;20059;-78
2022/08/09 02:59:39;;;;;;;1.40;0.95;;;17.10;70.60;;;;;;6322249;28;20052;-78
2022/08/09 03:02:46;;;;;;;1.30;0.82;;;17.00;71.00;;;;;;6322662;28;20059;-78
2022/08/09 03:05:50;;;;;;;3.22;0.80;;;17.00;71.10;;;;;;6323111;28;20044;-76
2022/08/09 03:08:53;;;;;;;1.55;1.05;;;17.00;71.20;;;;;;6323314;28;20054;-78
2022/08/09 03:11:55;;;;;;;2.45;0.82;;;17.00;71.40;;;;;;6326522;28;20569;-78
2022/08/09 03:14:59;;;;;;;2.58;0.85;;;17.00;71.30;;;;;;6326877;28;20044;-78
2022/08/09 03:18:03;;;;;;;2.22;1.30;;;17.00;71.40;;;;;;6326080;28;20052;-78
2022/08/09 03:21:06;;;;;;;4.40;1.20;;;16.90;71.50;;;;;;6326617;28;20518;-78
2022/08/09 03:24:08;;;;;;;2.47;1.05;;;16.90;71.70;;;;;;6326000;28;20040;-78
2022/08/09 03:27:10;;;;;;;2.70;1.52;;;16.80;72.00;;;;;;6325855;28;20534;-78
2022/08/09 03:30:14;;;;;;;1.88;1.05;;;16.70;72.20;;;;;;6325488;28;20044;-77
2022/08/09 03:33:17;;;;;;;4.13;1.25;;;16.70;72.50;;;;;;6326013;28;20051;-77
2022/08/09 03:36:19;;;;;;;1.83;1.15;;;16.70;72.80;;;;;;6324844;28;20044;-77
2022/08/09 03:39:23;;;;;;;1.98;1.02;;;16.60;72.90;;;;;;6324389;28;20500;-77
2022/08/09 03:42:25;;;;;;;3.03;1.27;;;16.60;73.80;;;;;;6325135;28;20181;-78
2022/08/09 03:45:28;;;;;;;2.28;1.17;;;16.60;73.30;;;;;;6325513;28;20054;-77
2022/08/09 03:48:32;;;;;;;2.17;1.17;;;16.50;73.30;;;;;;6324759;28;20044;-78
2022/08/09 03:51:35;;;;;;;2.08;1.40;;;16.50;73.30;;;;;;6325043;28;20040;-78
2022/08/09 03:54:39;;;;;;;5.43;2.25;;;16.50;73.50;;;;;;6325576;28;20115;-77
2022/08/09 03:57:41;;;;;;;2.92;1.50;;;16.50;73.60;;;;;;6325794;28;20048;-77
2022/08/09 04:00:45;;;;;;;3.90;1.70;;;16.50;73.60;;;;;;6324674;28;20044;-77
2022/08/09 04:03:48;;;;;;;10.27;3.60;;;16.50;73.60;;;;;;6324766;28;20052;-76
2022/08/09 04:06:50;;;;;;;7.72;3.40;;;16.40;73.90;;;;;;6324203;28;20573;-76
2022/08/09 04:09:51;;;;;;;6.30;2.42;;;16.50;74.20;;;;;;6324263;28;20048;-77
2022/08/09 04:12:54;;;;;;;5.28;2.00;;;16.50;74.10;;;;;;6324858;28;20052;-77
2022/08/09 04:15:57;;;;;;;7.47;2.63;;;16.50;73.90;;;;;;6324270;28;20044;-77
2022/08/09 04:18:59;;;;;;;5.38;2.30;;;16.50;74.00;;;;;;6323619;28;20419;-77
2022/08/09 04:22:01;;;;;;;5.45;2.85;;;16.50;74.00;;;;;;6323002;28;20048;-78
2022/08/09 04:25:04;;;;;;;6.00;2.63;;;16.50;74.00;;;;;;6324337;28;20052;-77
2022/08/09 04:28:06;;;;;;;5.70;3.00;;;16.60;73.90;;;;;;6323643;28;20048;-77
2022/08/09 04:31:09;;;;;;;5.75;2.58;;;16.60;74.10;;;;;;6323606;28;20040;-78
2022/08/09 04:34:10;;;;;;;9.18;3.40;;;16.60;73.80;;;;;;6324057;28;20051;-78
2022/08/09 04:37:12;;;;;;;8.15;2.42;;;16.70;73.60;;;;;;6324491;28;20052;-76
2022/08/09 04:40:15;;;;;;;6.53;2.47;;;16.70;73.40;;;;;;6323748;28;20528;-76
2022/08/09 04:43:17;;;;;;;7.53;2.85;;;16.80;73.40;;;;;;6322058;28;20127;-76
2022/08/09 04:46:20;;;;;;;5.68;2.33;;;16.70;73.20;;;;;;6322072;28;20047;-76
2022/08/09 04:49:22;;;;;;;5.53;2.55;;;16.80;73.30;;;;;;6322229;28;20051;-76
2022/08/09 04:52:26;;;;;;;8.50;2.33;;;16.80;73.30;;;;;;6321750;28;20040;-76
2022/08/09 04:55:28;;;;;;;6.90;2.20;;;17.20;73.00;;;;;;6321722;28;20044;-76
2022/08/09 04:58:30;;;;;;;13.23;3.72;;;17.80;71.00;;;;;;6307949;28;20045;-76
2022/08/09 05:01:33;;;;;;;7.25;3.47;;;18.30;69.30;;;;;;6319393;28;20055;-76
2022/08/09 05:04:34;;;;;;;8.02;3.20;;;18.40;68.90;;;;;;6321602;28;20048;-76
2022/08/09 05:07:36;;;;;;;6.90;2.83;;;18.30;69.10;;;;;;6315319;28;20419;-76
2022/08/09 05:10:38;;;;;;;12.30;3.25;;;18.20;69.10;;;;;;6304718;28;20492;-76
2022/08/09 05:13:40;;;;;;;6.43;3.08;;;18.30;69.30;;;;;;6296753;28;20045;-76
2022/08/09 05:16:43;;;;;;;6.00;2.97;;;18.50;69.30;;;;;;6296444;28;20068;-77
2022/08/09 05:19:45;;;;;;;11.20;4.03;;;18.70;68.80;;;;;;6295620;28;20516;-77
2022/08/09 05:22:49;;;;;;;7.97;2.25;;;19.00;68.40;;;;;;6296264;28;20051;-76
2022/08/09 05:25:50;;;;;;;7.50;2.65;;;19.20;67.60;;;;;;6312340;28;20116;-76
2022/08/09 05:28:52;;;;;;;4.47;2.45;;;19.60;66.70;;;;;;6321659;28;20055;-76
2022/08/09 05:31:59;;;;;;;4.72;2.40;;;20.10;65.20;;;;;;6320847;28;20415;-77
2022/08/09 05:35:00;;;;;;;5.53;2.47;;;20.40;63.60;;;;;;6320927;28;20056;-76
2022/08/09 05:41:03;;;;;;;4.90;1.90;;;20.70;62.40;;;;;;6316802;22;20041;-77
2022/08/09 05:44:05;;;;;;;9.30;2.03;;;21.10;62.50;;;;;;6296387;28;20045;-77
2022/08/09 05:47:08;;;;;;;10.00;2.00;;;22.30;59.20;;;;;;6295910;28;20426;-77
2022/08/09 05:50:10;;;;;;;5.65;1.77;;;24.30;54.80;;;;;;6313637;28;20158;-78
2022/08/09 05:53:11;;;;;;;7.03;1.58;;;26.50;49.80;;;;;;6321574;28;20411;-77
2022/08/09 05:56:13;;;;;;;4.25;1.75;;;28.60;45.40;;;;;;6321229;28;20044;-77
2022/08/09 05:59:15;;;;;;;6.32;1.85;;;29.70;41.70;;;;;;6320795;28;20620;-77
2022/08/09 06:02:18;;;;;;;4.47;1.92;;;30.00;40.50;;;;;;6321140;28;20056;-77
2022/08/09 06:05:20;;;;;;;4.45;1.50;;;29.70;40.00;;;;;;6322006;28;20048;-78
2022/08/09 06:08:21;;;;;;;4.72;1.60;;;28.90;40.70;;;;;;6292160;28;20052;-77
2022/08/09 06:11:23;;;;;;;7.45;1.67;;;28.30;41.30;;;;;;6321249;28;20040;-78
2022/08/09 06:14:25;;;;;;;2.88;1.30;;;28.20;41.00;;;;;;6318237;28;20048;-77
2022/08/09 06:17:28;;;;;;;6.40;1.63;;;27.90;41.50;;;;;;6292001;28;20052;-78
2022/08/09 06:20:30;;;;;;;3.85;1.52;;;27.60;42.30;;;;;;6284251;28;20110;-77
2022/08/09 06:23:32;;;;;;;2.70;1.08;;;27.80;41.80;;;;;;6295732;28;20044;-77
2022/08/09 06:26:37;;;;;;;3.53;1.42;;;27.60;41.10;;;;;;6296038;28;20049;-77
2022/08/09 06:29:39;;;;;;;3.90;1.00;;;27.40;40.60;;;;;;6295966;28;20053;-76
2022/08/09 06:32:42;;;;;;;4.20;1.35;;;27.50;40.90;;;;;;6295441;28;20045;-78
2022/08/09 06:35:44;;;;;;;2.72;0.90;;;28.30;39.50;;;;;;6295639;28;20044;-77
2022/08/09 06:38:45;;;;;;;4.45;1.02;;;29.00;38.40;;;;;;6295389;28;20392;-77
2022/08/09 06:41:47;;;;;;;1.13;0.60;;;30.10;37.30;;;;;;6295962;28;20055;-78
2022/08/09 06:44:49;;;;;;;1.63;0.70;;;31.60;36.20;;;;;;6298006;28;20053;-77
2022/08/09 06:47:52;;;;;;;3.20;1.25;;;33.10;34.10;;;;;;6283811;28;20053;-77
2022/08/09 06:50:54;;;;;;;5.45;1.08;;;34.00;32.70;;;;;;6275156;28;20567;-78
2022/08/09 06:53:55;;;;;;;2.28;0.73;;;34.50;31.70;;;;;;6275996;28;20071;-77
2022/08/09 06:56:57;;;;;;;6.50;0.90;;;34.40;31.10;;;;;;6275978;28;20052;-78
2022/08/09 06:59:59;;;;;;;3.45;0.80;;;34.30;30.70;;;;;;6275214;28;20424;-78
2022/08/09 07:03:03;;;;;;;5.72;1.05;;;34.30;31.20;;;;;;6275523;28;20428;-79
2022/08/09 07:06:05;;;;;;;6.90;0.70;;;35.00;30.30;;;;;;6275538;28;20055;-78
2022/08/09 07:09:07;;;;;;;3.67;0.82;;;35.30;30.00;;;;;;6277750;28;20051;-78
2022/08/09 07:12:08;;;;;;;4.45;0.60;;;35.20;29.80;;;;;;6278504;28;20037;-78
2022/08/09 07:15:10;;;;;;;3.85;0.73;;;33.00;31.50;;;;;;6278327;28;20045;-79
2022/08/09 07:18:14;;;;;;;4.05;0.93;;;31.30;33.70;;;;;;6278401;28;20053;-78
2022/08/09 07:21:15;;;;;;;7.88;0.70;;;30.10;35.10;;;;;;6279496;28;20055;-78
2022/08/09 07:24:17;;;;;;;9.90;1.10;;;29.20;36.00;;;;;;6278005;28;20132;-78
2022/08/09 07:27:19;;;;;;;1.48;0.60;;;28.60;37.40;;;;;;6277871;28;20447;-78
2022/08/09 07:30:21;;;;;;;4.75;0.73;;;28.40;37.20;;;;;;6296810;28;20413;-78
2022/08/09 07:33:25;;;;;;;8.52;0.70;;;28.20;38.20;;;;;;6278597;28;20088;-78
2022/08/09 07:36:29;;;;;;;3.97;0.60;;;28.10;38.00;;;;;;6278161;28;20052;-78
2022/08/09 07:39:31;;;;;;;1.90;0.50;;;28.00;39.00;;;;;;6277381;28;20076;-78
2022/08/09 07:42:33;;;;;;;4.57;0.85;;;28.10;38.10;;;;;;6278609;28;20041;-78
2022/08/09 07:45:34;;;;;;;4.35;0.60;;;28.10;38.20;;;;;;6280312;28;20075;-78
2022/08/09 07:48:37;;;;;;;2.08;0.70;;;28.00;38.30;;;;;;6279045;28;20060;-78
2022/08/09 07:51:39;;;;;;;5.60;0.70;;;28.00;38.30;;;;;;6279961;28;20055;-78
2022/08/09 07:54:41;;;;;;;3.78;0.65;;;27.80;38.70;;;;;;6295029;28;20045;-77
2022/08/09 07:57:46;;;;;;;6.43;0.75;;;27.70;38.90;;;;;;6294853;28;20515;-77
2022/08/09 08:00:47;;;;;;;3.72;0.77;;;27.60;39.10;;;;;;6304711;28;20048;-78
2022/08/09 08:03:50;;;;;;;2.55;0.82;;;27.50;39.40;;;;;;6298787;28;20065;-78
2022/08/09 08:06:52;;;;;;;3.15;0.68;;;27.50;39.60;;;;;;6307113;28;20051;-81
2022/08/09 08:09:54;;;;;;;5.63;0.65;;;27.40;39.70;;;;;;6306693;28;20059;-78
2022/08/09 08:12:56;;;;;;;6.22;0.80;;;27.50;40.10;;;;;;6306560;28;20045;-78
2022/08/09 08:15:58;;;;;;;1.08;0.60;;;27.80;39.50;;;;;;6306771;28;20533;-79
2022/08/09 08:19:01;;;;;;;5.30;1.02;;;28.00;39.40;;;;;;6303121;28;20046;-80
2022/08/09 08:22:03;;;;;;;6.60;0.70;;;28.20;39.50;;;;;;6308251;28;20044;-81
2022/08/09 08:25:05;;;;;;;2.88;0.60;;;28.50;38.80;;;;;;6306613;28;20064;-80
2022/08/09 08:28:07;;;;;;;3.35;0.65;;;28.40;39.20;;;;;;6300976;28;20523;-80
2022/08/09 08:31:09;;;;;;;4.30;0.85;;;28.30;39.10;;;;;;6320444;28;20051;-80
2022/08/09 08:34:12;;;;;;;6.82;1.08;;;28.50;39.10;;;;;;6312141;28;20051;-81
2022/08/09 08:37:15;;;;;;;6.57;0.95;;;28.60;39.00;;;;;;6311546;28;20049;-81
2022/08/09 08:40:16;;;;;;;3.58;0.60;;;28.90;38.60;;;;;;6315234;28;20044;-80
2022/08/09 08:43:18;;;;;;;3.35;0.68;;;29.00;38.70;;;;;;6311981;28;20045;-80
2022/08/09 08:46:24;;;;;;;2.42;0.70;;;29.30;38.40;;;;;;6308650;28;20044;-80
2022/08/09 08:49:27;;;;;;;2.45;0.75;;;29.70;37.90;;;;;;6304646;28;20044;-80
2022/08/09 08:52:30;;;;;;;1.73;0.85;;;30.00;37.50;;;;;;6305983;28;20415;-80
2022/08/09 08:55:32;;;;;;;1.58;1.05;;;29.80;37.50;;;;;;6307742;28;20049;-81
2022/08/09 08:58:36;;;;;;;4.10;0.85;;;30.00;37.60;;;;;;6309585;28;20056;-81
2022/08/09 09:01:39;;;;;;;5.10;0.60;;;30.20;37.50;;;;;;6312543;28;20040;-81
2022/08/09 09:04:44;;;;;;;5.15;1.05;;;30.30;37.00;;;;;;6310370;28;20078;-82
2022/08/09 09:07:49;;;;;;;3.03;0.57;;;30.60;36.70;;;;;;6309301;28;20105;-80
2022/08/09 09:10:53;;;;;;;3.83;1.02;;;30.50;36.80;;;;;;6306022;28;20185;-80
2022/08/09 09:13:57;;;;;;;3.88;0.70;;;30.30;37.40;;;;;;6306631;28;20044;-81
2022/08/09 09:16:59;;;;;;;0.88;0.57;;;30.60;37.20;;;;;;6310992;28;20135;-80
2022/08/09 09:20:07;;;;;;;3.17;0.82;;;30.80;36.90;;;;;;6309623;28;20040;-79
2022/08/09 09:23:09;;;;;;;2.65;0.73;;;30.90;36.70;;;;;;6310610;28;20048;-79
2022/08/09 09:26:12;;;;;;;1.83;0.70;;;30.90;36.50;;;;;;6309852;28;20047;-80
2022/08/09 09:29:13;;;;;;;4.57;0.80;;;31.10;36.70;;;;;;6313814;28;20135;-80
2022/08/09 09:32:20;;;;;;;1.80;0.55;;;31.50;36.30;;;;;;6311844;28;20072;-81
2022/08/09 09:35:23;;;;;;;1.95;0.57;;;31.80;35.50;;;;;;6310144;28;20040;-80
2022/08/09 09:38:40;;;;;;;2.88;0.55;;;31.80;35.70;;;;;;6308501;28;20423;-79
2022/08/09 09:41:41;;;;;;;1.08;0.75;;;31.90;35.40;;;;;;6300243;28;20056;-76
2022/08/09 09:44:43;;;;;;;2.67;0.80;;;31.90;35.50;;;;;;6299277;28;20048;-78
2022/08/09 09:47:46;;;;;;;3.67;1.05;;;32.10;35.60;;;;;;6298714;28;20525;-78
2022/08/09 09:50:52;;;;;;;4.82;0.77;;;32.30;34.90;;;;;;6301479;28;20100;-78
2022/08/09 09:54:04;;;;;;;3.75;0.77;;;32.20;35.20;;;;;;6306360;28;20066;-77
2022/08/09 09:57:17;;;;;;;2.53;0.80;;;32.50;35.10;;;;;;6304645;28;20044;-78
2022/08/09 10:00:23;;;;;;;1.30;0.50;;;32.90;34.50;;;;;;6308009;28;20089;-79
2022/08/09 10:03:41;;;;;;;2.00;0.65;;;33.60;34.00;;;;;;6309856;28;20040;-80
2022/08/09 10:06:46;;;;;;;1.38;0.43;;;34.90;32.60;;;;;;6307735;28;20483;-81
2022/08/09 10:09:49;;;;;;;0.80;0.43;;;36.10;31.70;;;;;;6307522;28;20129;-81
2022/08/09 10:12:53;;;;;;;5.38;0.88;;;36.30;31.10;;;;;;6306588;28;20047;-82
2022/08/09 10:15:55;;;;;;;1.23;0.60;;;36.00;30.50;;;;;;6304198;28;20051;-78
2022/08/09 10:18:58;;;;;;;4.68;0.40;;;35.10;31.30;;;;;;6303693;28;20049;-79
2022/08/09 10:22:02;;;;;;;5.65;0.50;;;34.40;32.00;;;;;;6314275;28;20080;-79
2022/08/09 10:25:07;;;;;;;1.27;0.50;;;34.00;32.00;;;;;;6305704;28;20051;-78
2022/08/09 10:28:09;;;;;;;2.30;0.75;;;33.60;32.30;;;;;;6305513;28;20067;-78
2022/08/09 10:31:12;;;;;;;4.05;0.80;;;33.30;32.30;;;;;;6304565;28;20047;-77
2022/08/09 10:34:15;;;;;;;2.25;0.70;;;33.50;32.50;;;;;;6301110;28;20048;-77
2022/08/09 10:37:19;;;;;;;1.05;0.32;;;33.70;32.00;;;;;;6305067;28;20052;-78
2022/08/09 10:40:21;;;;;;;3.53;0.50;;;33.60;31.90;;;;;;6305755;28;20040;-79
2022/08/09 10:43:23;;;;;;;3.90;0.70;;;33.50;32.30;;;;;;6305431;28;20040;-79
2022/08/09 10:46:46;;;;;;;4.88;0.68;;;33.80;32.10;;;;;;6305837;28;20045;-77
2022/08/09 10:49:57;;;;;;;0.95;0.40;;;34.00;31.90;;;;;;6304763;28;20437;-78
2022/08/09 10:53:19;;;;;;;0.93;0.55;;;34.30;31.60;;;;;;6306250;28;20045;-79
2022/08/09 10:56:23;;;;;;;2.97;0.95;;;34.50;31.40;;;;;;6306612;28;20047;-78
2022/08/09 10:59:29;;;;;;;9.18;0.60;;;34.70;31.30;;;;;;6307193;28;20081;-79
2022/08/09 11:02:39;;;;;;;1.77;0.60;;;35.00;30.40;;;;;;6307344;28;20603;-79
2022/08/09 11:05:41;;;;;;;1.50;0.40;;;35.10;30.60;;;;;;6315186;28;20076;-79
2022/08/09 11:08:45;;;;;;;1.15;0.57;;;35.40;29.80;;;;;;6312899;28;20048;-78
2022/08/09 11:12:10;;;;;;;4.70;1.20;;;35.10;29.30;;;;;;6308231;28;20116;-80
2022/08/09 11:15:26;;;;;;;4.68;0.70;;;34.80;29.00;;;;;;6314810;28;20074;-79
2022/08/09 11:18:45;;;;;;;2.17;0.50;;;34.30;28.90;;;;;;6306805;28;20202;-77
2022/08/09 11:21:59;;;;;;;4.90;0.77;;;34.40;29.30;;;;;;6304854;28;20056;-78
2022/08/09 11:25:10;;;;;;;4.68;0.55;;;34.30;29.20;;;;;;6301499;28;20084;-78
2022/08/09 11:28:36;;;;;;;1.98;0.50;;;34.00;29.60;;;;;;6296998;28;20496;-77
2022/08/09 11:31:43;;;;;;;3.72;0.70;;;33.90;29.60;;;;;;6298202;28;20467;-77
2022/08/09 11:34:49;;;;;;;3.23;0.50;;;33.70;30.00;;;;;;6298457;28;20049;-78
2022/08/09 11:37:53;;;;;;;3.97;0.77;;;33.70;30.00;;;;;;6299230;28;20108;-78
2022/08/09 11:40:56;;;;;;;5.93;1.60;;;34.00;29.90;;;;;;6303773;28;20059;-78
2022/08/09 11:43:58;;;;;;;0.65;0.38;;;34.10;30.00;;;;;;6303116;28;20499;-78
2022/08/09 11:47:01;;;;;;;2.08;0.40;;;34.70;29.80;;;;;;6301546;28;20131;-78
2022/08/09 11:50:04;;;;;;;1.88;0.50;;;34.90;29.30;;;;;;6302450;28;20053;-78
2022/08/09 11:53:20;;;;;;;8.48;0.68;;;35.10;29.10;;;;;;6301904;28;20071;-78
2022/08/09 11:56:27;;;;;;;3.70;0.93;;;34.90;29.20;;;;;;6301089;28;20040;-78
2022/08/09 11:59:29;;;;;;;1.55;0.40;;;34.60;29.40;;;;;;6300498;28;20066;-78
2022/08/09 12:02:30;;;;;;;5.97;0.50;;;34.80;29.70;;;;;;6302582;28;20040;-79
2022/08/09 12:05:34;;;;;;;2.83;0.70;;;35.00;29.90;;;;;;6302677;28;20051;-79
2022/08/09 12:08:36;;;;;;;2.58;0.50;;;35.10;29.30;;;;;;6301324;28;20052;-77
2022/08/09 12:11:40;;;;;;;1.67;0.82;;;35.00;29.40;;;;;;6301610;28;20419;-78
2022/08/09 12:14:42;;;;;;;1.33;0.32;;;35.00;29.60;;;;;;6302163;28;20120;-79
2022/08/09 12:17:47;;;;;;;6.57;0.93;;;35.00;29.30;;;;;;6302443;28;20056;-81
2022/08/09 12:20:48;;;;;;;1.05;0.57;;;34.90;29.50;;;;;;6300592;28;20127;-81
2022/08/09 12:23:51;;;;;;;2.22;0.60;;;34.70;29.60;;;;;;6299579;28;20052;-80
2022/08/09 12:26:57;;;;;;;8.35;0.55;;;34.80;29.50;;;;;;6298181;28;20454;-79
2022/08/09 12:29:59;;;;;;;3.45;0.60;;;34.80;29.40;;;;;;6294132;28;20051;-80
2022/08/09 12:33:01;;;;;;;1.58;0.38;;;34.70;29.40;;;;;;6301678;28;20057;-79
2022/08/09 12:36:05;;;;;;;2.05;0.35;;;34.70;29.60;;;;;;6301064;28;20052;-80
2022/08/09 12:39:14;;;;;;;4.47;0.40;;;35.10;29.60;;;;;;6300741;28;20535;-80
2022/08/09 12:42:17;;;;;;;2.72;0.80;;;35.60;29.30;;;;;;6299331;28;20052;-79
2022/08/09 12:45:20;;;;;;;1.08;0.40;;;36.20;29.20;;;;;;6301410;28;20048;-80
2022/08/09 12:48:23;;;;;;;3.22;0.60;;;36.60;28.50;;;;;;6300414;28;20045;-81
2022/08/09 12:51:25;;;;;;;1.65;0.20;;;36.50;28.30;;;;;;6300206;28;20051;-80
2022/08/09 12:54:26;;;;;;;1.73;0.40;;;36.30;28.20;;;;;;6300154;28;20056;-78
2022/08/09 12:57:41;;;;;;;2.47;0.40;;;36.10;28.60;;;;;;6300996;28;20051;-78
2022/08/09 13:00:46;;;;;;;3.38;0.65;;;36.30;28.50;;;;;;6299256;28;20048;-79
2022/08/09 13:03:59;;;;;;;4.28;0.63;;;36.30;28.40;;;;;;6299382;28;20040;-78
2022/08/09 13:07:11;;;;;;;0.90;0.45;;;36.30;28.30;;;;;;6299441;28;20131;-79
2022/08/09 13:10:12;;;;;;;1.10;0.30;;;36.40;28.30;;;;;;6299953;28;20052;-79
2022/08/09 13:13:27;;;;;;;4.90;0.45;;;36.50;28.10;;;;;;6300756;28;20064;-78
2022/08/09 13:16:44;;;;;;;2.25;0.35;;;36.70;28.10;;;;;;6299118;28;20048;-78
2022/08/09 13:19:46;;;;;;;;;;;36.80;28.30;;;;;;6300351;28;20059;-78
2022/08/09 13:22:48;;;;;;;0.70;0.28;;;36.80;28.20;;;;;;6298145;28;19924;-79
2022/08/09 13:25:50;;;;;;;0.73;0.30;;;36.50;27.90;;;;;;6300040;28;20067;-78
2022/08/09 13:29:07;;;;;;;0.98;0.30;;;35.90;28.20;;;;;;6299949;28;20048;-79
2022/08/09 13:32:09;;;;;;;0.77;0.45;;;35.40;28.40;;;;;;6298982;28;20048;-79
2022/08/09 13:35:11;;;;;;;2.60;0.40;;;35.70;28.70;;;;;;6301610;28;20377;-78
2022/08/09 13:38:13;;;;;;;0.85;0.45;;;35.80;28.70;;;;;;6299239;28;20059;-79
2022/08/09 13:41:20;;;;;;;1.02;0.40;;;35.60;28.10;;;;;;6300130;28;20048;-78
2022/08/09 13:44:23;;;;;;;9.60;0.70;;;35.30;28.00;;;;;;6299411;28;20515;-78
2022/08/09 13:47:25;;;;;;;2.65;0.73;;;34.90;28.20;;;;;;6298620;28;20048;-79
2022/08/09 13:50:26;;;;;;;1.27;0.45;;;34.60;28.60;;;;;;6299962;28;20055;-78
2022/08/09 13:53:28;;;;;;;1.65;0.50;;;34.70;28.90;;;;;;6299972;28;20049;-78
2022/08/09 13:56:30;;;;;;;0.22;0.22;;;35.10;28.60;;;;;;6298676;28;20415;-78
2022/08/09 13:59:33;;;;;;;1.85;0.20;;;35.40;28.40;;;;;;6297979;28;20045;-78
2022/08/09 14:02:35;;;;;;;1.52;0.30;;;35.20;28.30;;;;;;6298829;28;20049;-78
2022/08/09 14:05:37;;;;;;;1.08;0.43;;;34.80;28.40;;;;;;6298542;28;20041;-78
2022/08/09 14:08:38;;;;;;;0.63;0.30;;;34.70;28.30;;;;;;6298349;28;20419;-79
2022/08/09 14:11:40;;;;;;;0.65;0.20;;;34.70;28.50;;;;;;6299046;28;20045;-79
2022/08/09 14:14:43;;;;;;;5.07;0.50;;;35.20;28.30;;;;;;6298574;28;20044;-78
2022/08/09 14:17:45;;;;;;;1.88;0.75;;;35.20;27.90;;;;;;6299126;28;20055;-78
2022/08/09 14:20:47;;;;;;;3.72;0.63;;;34.90;28.10;;;;;;6298277;28;20508;-78
2022/08/09 14:23:50;;;;;;;0.28;0.22;;;34.70;28.10;;;;;;6296657;28;20060;-78
2022/08/09 14:26:52;;;;;;;4.78;0.52;;;34.60;28.40;;;;;;6294366;28;20040;-78
2022/08/09 14:29:55;;;;;;;1.25;0.32;;;34.70;27.80;;;;;;6298559;28;20048;-78
2022/08/09 14:32:56;;;;;;;1.52;0.40;;;34.60;28.00;;;;;;6300356;28;20074;-79
2022/08/09 14:35:58;;;;;;;4.13;0.40;;;34.60;28.30;;;;;;6299106;28;20064;-79
2022/08/09 14:39:00;;;;;;;0.50;0.30;;;34.60;28.40;;;;;;6298427;28;20041;-77
2022/08/09 14:42:02;;;;;;;0.90;0.40;;;34.90;27.90;;;;;;6298490;28;20142;-79
2022/08/09 14:45:08;;;;;;;2.53;0.47;;;34.90;27.80;;;;;;6300332;28;20051;-77
2022/08/09 14:48:09;;;;;;;1.35;0.50;;;34.80;27.70;;;;;;6297716;28;20044;-78
2022/08/09 14:51:11;;;;;;;0.68;0.20;;;34.90;27.80;;;;;;6298346;28;20488;-78
2022/08/09 14:54:14;;;;;;;5.07;0.57;;;35.00;27.40;;;;;;6298384;28;20045;-78
2022/08/09 14:57:16;;;;;;;0.73;0.30;;;34.90;27.30;;;;;;6295003;28;20049;-78
2022/08/09 15:00:19;;;;;;;3.10;0.80;;;35.20;27.30;;;;;;6298279;28;20426;-78
2022/08/09 15:03:21;;;;;;;10.27;2.80;;;35.40;27.20;;;;;;6297073;28;20053;-78
2022/08/09 15:06:23;;;;;;;2.97;0.40;;;34.90;27.20;;;;;;6299362;28;20427;-79
2022/08/09 15:09:25;;;;;;;0.65;0.40;;;34.60;27.90;;;;;;6301376;28;20078;-78
2022/08/09 15:12:27;;;;;;;5.95;0.40;;;34.20;27.60;;;;;;6300372;28;20416;-77
2022/08/09 15:15:31;;;;;;;2.47;0.70;;;33.90;27.50;;;;;;6302347;28;20110;-78
2022/08/09 15:18:33;;;;;;;1.17;0.30;;;33.70;27.80;;;;;;6300963;28;20498;-78
2022/08/09 15:21:35;;;;;;;3.47;0.40;;;33.70;27.70;;;;;;6303056;28;20052;-79
2022/08/09 15:24:36;;;;;;;0.60;0.30;;;33.90;27.80;;;;;;6299778;28;20037;-78
2022/08/09 15:27:38;;;;;;;0.98;0.35;;;33.80;27.70;;;;;;6300669;28;20044;-78
2022/08/09 15:30:41;;;;;;;2.80;0.63;;;33.70;27.80;;;;;;6301596;28;20040;-78
2022/08/09 15:33:43;;;;;;;0.85;0.40;;;33.70;27.70;;;;;;6301740;28;20530;-78
2022/08/09 15:36:45;;;;;;;5.68;0.52;;;33.80;27.70;;;;;;6301492;28;20040;-78
2022/08/09 15:39:46;;;;;;;0.55;0.35;;;34.10;27.70;;;;;;6300404;28;20052;-78
2022/08/09 15:42:51;;;;;;;2.38;0.55;;;34.00;27.60;;;;;;6301304;28;20052;-78
2022/08/09 15:45:54;;;;;;;0.90;0.60;;;33.90;27.40;;;;;;6300898;28;20055;-78
2022/08/09 15:48:56;;;;;;;3.10;0.40;;;33.70;27.70;;;;;;6300853;28;20420;-78
2022/08/09 15:51:58;;;;;;;1.27;0.47;;;33.50;27.70;;;;;;6301588;28;20048;-80
2022/08/09 15:54:59;;;;;;;6.72;0.50;;;33.50;27.80;;;;;;6301484;28;20047;-80
2022/08/09 15:58:03;;;;;;;0.90;0.30;;;33.70;27.80;;;;;;6298550;28;20186;-80
2022/08/09 16:01:09;;;;;;;1.88;0.45;;;33.70;27.80;;;;;;6303822;28;20446;-80